Time;durP1;ratioP1;P1;durP2;ratioP2;P2;SDS_P1;SDS_P2;PMS_P1;PMS_P2;Temp;Humidity;BMP_temperature;BMP_pressure;BME280_temperature;BME280_humidity;BME280_pressure;Samples;Min_cycle;Max_cycle;Signal;HPM_P1;HPM_P2
2022/10/19 00:00:23;;;;;;;2.13;0.60;;;9.60;99.90;;;;;;5014813;28;20053;-72
2022/10/19 00:02:49;;;;;;;3.80;0.80;;;9.50;99.90;;;;;;5015734;28;20521;-72
2022/10/19 00:05:15;;;;;;;16.55;2.00;;;9.40;99.90;;;;;;5026068;28;20046;-73
2022/10/19 00:07:40;;;;;;;36.00;3.55;;;9.30;99.90;;;;;;5030539;28;20486;-72
2022/10/19 00:10:06;;;;;;;3.78;0.70;;;9.20;99.90;;;;;;5026491;28;20042;-72
2022/10/19 00:12:32;;;;;;;2.78;0.63;;;9.10;99.90;;;;;;5022078;28;20045;-73
2022/10/19 00:14:58;;;;;;;2.10;0.60;;;9.00;99.90;;;;;;5020575;28;20046;-73
2022/10/19 00:17:24;;;;;;;2.90;0.80;;;8.90;99.90;;;;;;5014379;28;20398;-73
2022/10/19 00:19:49;;;;;;;6.10;0.95;;;8.90;99.90;;;;;;5018222;28;20053;-73
2022/10/19 00:22:15;;;;;;;2.38;0.68;;;8.90;99.90;;;;;;5014061;28;20155;-72
2022/10/19 00:24:41;;;;;;;2.70;0.80;;;8.90;99.90;;;;;;4995235;28;20521;-73
2022/10/19 00:27:07;;;;;;;2.38;0.70;;;8.90;99.90;;;;;;5014159;28;20058;-73
2022/10/19 00:29:32;;;;;;;2.80;0.80;;;8.90;99.90;;;;;;5014443;28;20461;-73
2022/10/19 00:31:58;;;;;;;2.95;0.68;;;8.90;99.90;;;;;;5013846;28;20049;-72
2022/10/19 00:34:24;;;;;;;5.53;0.98;;;8.90;99.90;;;;;;5018085;28;20359;-72
2022/10/19 00:36:49;;;;;;;2.10;0.90;;;8.90;99.90;;;;;;5017271;28;20042;-73
2022/10/19 00:39:17;;;;;;;3.47;0.90;;;8.90;99.90;;;;;;5014059;28;20108;-73
2022/10/19 00:41:45;;;;;;;2.22;0.80;;;8.90;99.90;;;;;;5014176;28;20050;-73
2022/10/19 00:44:10;;;;;;;3.42;0.82;;;8.90;99.90;;;;;;5013707;28;20041;-72
2022/10/19 00:46:42;;;;;;;2.53;0.90;;;8.90;99.90;;;;;;5014069;28;20052;-73
2022/10/19 00:49:12;;;;;;;3.03;0.90;;;8.90;99.90;;;;;;4996286;28;20050;-73
2022/10/19 00:51:40;;;;;;;2.55;1.00;;;9.30;99.90;;;;;;5014306;28;20486;-73
2022/10/19 00:54:08;;;;;;;2.20;0.95;;;8.90;99.90;;;;;;5013125;28;20042;-73
2022/10/19 00:56:34;;;;;;;3.90;1.00;;;9.00;99.90;;;;;;5013764;28;20092;-73
2022/10/19 00:59:04;;;;;;;2.55;1.08;;;9.00;99.90;;;;;;5013782;28;20104;-72
2022/10/19 01:01:31;;;;;;;2.95;1.10;;;9.10;99.90;;;;;;5013757;28;20037;-72
2022/10/19 01:03:58;;;;;;;2.53;0.95;;;9.20;99.90;;;;;;5013518;28;20563;-73
2022/10/19 01:06:25;;;;;;;5.15;1.20;;;9.20;99.90;;;;;;4995212;28;20042;-73
2022/10/19 01:08:50;;;;;;;2.08;0.95;;;9.30;99.90;;;;;;5013561;28;20052;-72
2022/10/19 01:11:31;;;;;;;4.05;1.13;;;9.30;99.90;;;;;;4996156;28;20050;-72
2022/10/19 01:14:21;;;;;;;5.45;1.35;;;9.30;99.90;;;;;;5014881;28;20124;-73
2022/10/19 01:17:12;;;;;;;3.00;0.90;;;9.30;99.90;;;;;;5011566;28;20117;-73
2022/10/19 01:19:59;;;;;;;3.67;1.27;;;9.30;99.90;;;;;;5009025;28;20038;-73
2022/10/19 01:22:47;;;;;;;2.22;0.88;;;9.20;99.90;;;;;;5013257;28;20482;-74
2022/10/19 01:25:21;;;;;;;4.47;1.30;;;9.30;99.90;;;;;;5009548;28;20049;-73
2022/10/19 01:28:01;;;;;;;2.40;1.27;;;9.40;99.90;;;;;;5012947;28;20080;-73
2022/10/19 01:30:32;;;;;;;5.93;1.20;;;9.50;99.90;;;;;;4994266;28;20494;-73
2022/10/19 01:33:11;;;;;;;3.92;1.13;;;9.50;99.90;;;;;;5008360;28;20050;-73
2022/10/19 01:35:50;;;;;;;6.50;1.10;;;9.60;99.90;;;;;;4995815;28;20490;-73
2022/10/19 01:38:21;;;;;;;6.18;1.38;;;9.70;99.90;;;;;;5012852;28;20490;-73
2022/10/19 01:41:15;;;;;;;3.92;1.30;;;9.80;99.90;;;;;;5013008;28;20061;-73
2022/10/19 01:43:40;;;;;;;5.68;1.30;;;9.90;99.90;;;;;;5006811;28;20033;-74
2022/10/19 01:46:17;;;;;;;2.75;0.98;;;10.00;99.90;;;;;;5013008;28;20057;-73
2022/10/19 01:48:57;;;;;;;4.30;1.50;;;10.00;99.90;;;;;;5013757;28;20056;-73
2022/10/19 01:51:29;;;;;;;2.97;1.60;;;10.10;99.90;;;;;;5012886;28;20041;-74
2022/10/19 01:53:59;;;;;;;1.80;0.88;;;10.10;99.90;;;;;;5012344;28;20506;-73
2022/10/19 01:56:29;;;;;;;2.53;0.82;;;10.20;99.90;;;;;;4995542;28;20143;-73
2022/10/19 01:58:57;;;;;;;3.22;0.93;;;10.20;99.90;;;;;;5014116;28;20053;-74
2022/10/19 02:01:28;;;;;;;2.45;1.10;;;10.20;99.90;;;;;;5014271;28;20632;-73
2022/10/19 02:03:55;;;;;;;3.00;1.15;;;10.20;99.90;;;;;;5016255;28;20513;-73
2022/10/19 02:06:21;;;;;;;2.72;1.00;;;10.20;99.90;;;;;;4994596;28;20426;-73
2022/10/19 02:08:50;;;;;;;2.33;0.80;;;10.20;99.90;;;;;;5011166;28;20417;-74
2022/10/19 02:11:17;;;;;;;3.80;1.25;;;10.20;99.90;;;;;;4994562;28;20483;-73
2022/10/19 02:13:45;;;;;;;3.13;1.00;;;10.20;99.90;;;;;;4994538;28;20132;-73
2022/10/19 02:16:26;;;;;;;4.35;1.48;;;10.20;99.90;;;;;;5030007;28;20049;-73
2022/10/19 02:18:53;;;;;;;4.55;0.90;;;10.20;99.90;;;;;;5012147;28;20053;-73
2022/10/19 02:21:19;;;;;;;1.92;0.90;;;10.10;99.90;;;;;;5011871;28;20054;-73
2022/10/19 02:23:45;;;;;;;3.40;1.23;;;10.20;99.90;;;;;;5011299;28;20443;-73
2022/10/19 02:26:11;;;;;;;3.97;0.90;;;10.10;99.90;;;;;;5011182;28;20112;-73
2022/10/19 02:28:37;;;;;;;5.45;1.35;;;10.10;99.90;;;;;;4993549;28;20046;-73
2022/10/19 02:31:03;;;;;;;1.85;1.25;;;10.00;99.90;;;;;;5012157;28;20042;-73
2022/10/19 02:33:29;;;;;;;2.60;0.80;;;10.10;99.90;;;;;;5011414;28;20546;-73
2022/10/19 02:35:56;;;;;;;3.17;1.00;;;10.10;99.90;;;;;;4992781;28;20054;-73
2022/10/19 02:38:23;;;;;;;1.70;0.90;;;10.10;99.90;;;;;;5011712;28;20096;-72
2022/10/19 02:41:15;;;;;;;4.43;0.93;;;10.10;99.90;;;;;;5011673;28;20103;-73
2022/10/19 02:43:46;;;;;;;2.25;0.80;;;10.20;99.90;;;;;;4998874;28;20042;-72
2022/10/19 02:46:26;;;;;;;2.85;0.80;;;10.20;99.90;;;;;;5016766;28;20041;-73
2022/10/19 02:48:54;;;;;;;2.78;1.00;;;10.20;99.90;;;;;;5012165;28;20050;-73
2022/10/19 02:51:53;;;;;;;4.18;0.98;;;10.20;99.90;;;;;;5011718;28;20050;-72
2022/10/19 02:54:18;;;;;;;2.72;1.05;;;10.20;99.90;;;;;;5010786;28;20085;-72
2022/10/19 02:56:44;;;;;;;4.00;1.00;;;10.20;99.90;;;;;;4994392;28;20081;-73
2022/10/19 02:59:10;;;;;;;1.85;0.80;;;10.20;99.90;;;;;;5011742;28;20537;-73
2022/10/19 03:01:35;;;;;;;3.72;1.40;;;10.30;99.90;;;;;;5013469;28;20057;-73
2022/10/19 03:04:01;;;;;;;3.88;1.10;;;10.20;99.90;;;;;;4997073;28;20434;-72
2022/10/19 03:06:27;;;;;;;3.85;1.00;;;10.30;99.90;;;;;;5013219;28;20049;-72
2022/10/19 03:08:52;;;;;;;2.90;0.88;;;10.30;99.90;;;;;;5012114;28;20052;-72
2022/10/19 03:11:18;;;;;;;2.50;1.00;;;10.30;99.90;;;;;;5024651;28;20054;-72
2022/10/19 03:13:44;;;;;;;2.88;0.82;;;10.30;99.90;;;;;;5011341;28;20046;-72
2022/10/19 03:16:11;;;;;;;5.53;1.27;;;10.30;99.90;;;;;;5011322;28;20041;-72
2022/10/19 03:18:37;;;;;;;3.75;1.63;;;10.30;99.90;;;;;;5012155;28;20417;-72
2022/10/19 03:21:08;;;;;;;1.98;0.70;;;10.20;99.90;;;;;;5011162;28;20054;-72
2022/10/19 03:23:34;;;;;;;2.67;0.80;;;10.10;99.90;;;;;;5010974;28;20104;-73
2022/10/19 03:26:00;;;;;;;2.72;0.80;;;10.00;99.90;;;;;;5009730;28;20499;-73
2022/10/19 03:28:27;;;;;;;2.38;0.50;;;9.90;99.90;;;;;;5008611;28;20557;-72
2022/10/19 03:30:52;;;;;;;1.27;0.70;;;9.80;99.90;;;;;;5009231;28;20040;-73
2022/10/19 03:33:18;;;;;;;1.00;0.50;;;9.60;99.90;;;;;;5009232;28;20046;-73
2022/10/19 03:35:44;;;;;;;1.52;0.55;;;9.50;99.90;;;;;;5019102;28;20449;-72
2022/10/19 03:38:10;;;;;;;1.85;0.60;;;9.30;99.90;;;;;;5011233;28;20048;-72
2022/10/19 03:40:36;;;;;;;4.35;1.00;;;9.20;99.90;;;;;;5011033;28;20061;-73
2022/10/19 03:43:02;;;;;;;1.67;0.50;;;9.10;99.90;;;;;;5010602;28;20046;-73
2022/10/19 03:45:27;;;;;;;3.35;1.10;;;9.00;99.90;;;;;;5011183;28;20050;-73
2022/10/19 03:47:53;;;;;;;3.22;1.05;;;9.00;99.90;;;;;;5010950;28;20556;-73
2022/10/19 03:50:20;;;;;;;3.08;0.98;;;9.00;99.90;;;;;;4993563;28;20398;-72
2022/10/19 03:52:48;;;;;;;2.50;0.70;;;9.10;99.90;;;;;;5010338;28;20490;-72
2022/10/19 03:55:14;;;;;;;2.72;0.88;;;9.10;99.90;;;;;;5010331;28;20050;-73
2022/10/19 03:57:39;;;;;;;3.58;0.82;;;9.10;99.90;;;;;;5011060;28;20042;-73
2022/10/19 04:00:06;;;;;;;4.55;0.90;;;9.10;99.90;;;;;;4993574;28;20057;-72
2022/10/19 04:02:31;;;;;;;3.65;1.08;;;9.00;99.90;;;;;;5010602;28;20037;-72
2022/10/19 04:04:57;;;;;;;3.30;0.80;;;9.00;99.90;;;;;;5011146;28;20494;-72
2022/10/19 04:07:23;;;;;;;2.90;0.98;;;9.00;99.90;;;;;;5010863;28;20533;-73
2022/10/19 04:09:48;;;;;;;4.82;0.80;;;8.90;99.90;;;;;;5017533;28;20048;-72
2022/10/19 04:12:14;;;;;;;3.20;0.90;;;9.10;99.90;;;;;;5010900;28;20060;-72
2022/10/19 04:14:39;;;;;;;2.92;1.30;;;9.10;99.90;;;;;;5018804;28;20076;-72
2022/10/19 04:17:05;;;;;;;1.80;0.80;;;9.00;99.90;;;;;;5010460;28;20476;-72
2022/10/19 04:19:31;;;;;;;2.83;0.80;;;9.10;99.90;;;;;;5010077;28;20046;-73
2022/10/19 04:21:57;;;;;;;2.55;0.75;;;9.00;99.90;;;;;;5012201;28;20050;-73
2022/10/19 04:24:23;;;;;;;3.22;1.00;;;9.10;99.90;;;;;;5010022;28;20065;-72
2022/10/19 04:26:51;;;;;;;2.58;0.70;;;9.10;99.90;;;;;;5010522;28;20050;-73
2022/10/19 04:29:18;;;;;;;3.60;1.00;;;9.10;99.90;;;;;;5021882;28;20482;-72
2022/10/19 04:31:44;;;;;;;3.28;0.90;;;9.20;99.90;;;;;;5010502;28;20411;-73
2022/10/19 04:34:11;;;;;;;3.22;0.80;;;9.60;99.90;;;;;;5010871;28;20042;-73
2022/10/19 04:36:37;;;;;;;4.95;1.10;;;9.20;99.90;;;;;;5009913;28;20056;-72
2022/10/19 04:39:04;;;;;;;4.00;0.85;;;9.20;99.90;;;;;;5020783;28;20510;-72
2022/10/19 04:41:29;;;;;;;3.83;1.10;;;9.20;99.90;;;;;;5018243;28;20053;-73
2022/10/19 04:43:57;;;;;;;2.08;0.80;;;9.20;99.90;;;;;;4999921;28;20124;-72
2022/10/19 04:46:24;;;;;;;3.00;0.80;;;9.20;99.90;;;;;;4996575;28;20108;-72
2022/10/19 04:48:50;;;;;;;1.95;0.82;;;9.20;99.90;;;;;;4996483;28;20121;-72
2022/10/19 04:51:16;;;;;;;2.08;0.73;;;9.30;99.90;;;;;;5013544;28;20152;-73
2022/10/19 04:53:43;;;;;;;2.33;0.80;;;9.20;99.90;;;;;;5014600;28;20107;-73
2022/10/19 04:56:16;;;;;;;1.85;0.80;;;9.30;99.90;;;;;;5021197;28;20050;-73
2022/10/19 04:58:41;;;;;;;5.18;2.03;;;9.30;99.90;;;;;;5013973;28;20153;-72
2022/10/19 05:01:16;;;;;;;2.15;1.13;;;9.30;99.90;;;;;;5013871;28;20058;-73
2022/10/19 05:03:42;;;;;;;2.20;0.90;;;9.40;99.90;;;;;;4994240;28;20080;-72
2022/10/19 05:06:08;;;;;;;2.97;0.60;;;9.40;99.90;;;;;;5009327;28;20398;-73
2022/10/19 05:08:34;;;;;;;2.58;0.82;;;9.40;99.90;;;;;;5013558;28;20052;-72
2022/10/19 05:11:02;;;;;;;2.92;0.88;;;9.50;99.90;;;;;;5014485;28;20437;-72
2022/10/19 05:13:29;;;;;;;3.08;1.00;;;9.50;99.90;;;;;;5013198;28;20046;-73
2022/10/19 05:15:56;;;;;;;2.47;0.80;;;9.50;99.90;;;;;;5032672;28;20080;-73
2022/10/19 05:18:22;;;;;;;2.90;1.00;;;9.50;99.90;;;;;;5014542;28;20112;-73
2022/10/19 05:20:48;;;;;;;3.67;1.05;;;9.50;99.90;;;;;;5013172;28;20593;-73
2022/10/19 05:23:14;;;;;;;3.47;0.90;;;9.50;99.90;;;;;;5011220;28;20058;-73
2022/10/19 05:25:39;;;;;;;2.38;0.98;;;9.50;99.90;;;;;;5012914;28;20085;-72
2022/10/19 05:28:05;;;;;;;3.80;0.98;;;9.50;99.90;;;;;;4995719;28;20147;-73
2022/10/19 05:30:31;;;;;;;2.58;1.10;;;9.50;99.90;;;;;;5012530;28;20068;-72
2022/10/19 05:32:57;;;;;;;3.30;0.85;;;9.50;99.90;;;;;;5012967;28;20052;-73
2022/10/19 05:35:22;;;;;;;4.32;0.90;;;9.60;99.90;;;;;;5013376;28;20049;-72
2022/10/19 05:37:53;;;;;;;2.60;0.88;;;9.50;99.90;;;;;;5013482;28;20054;-72
2022/10/19 05:40:19;;;;;;;3.42;1.00;;;9.50;99.90;;;;;;5022532;28;20119;-72
2022/10/19 05:42:44;;;;;;;1.55;0.80;;;9.60;99.90;;;;;;5015022;28;20045;-72
2022/10/19 05:45:10;;;;;;;3.30;0.90;;;9.50;99.90;;;;;;5016825;28;20490;-73
2022/10/19 05:47:35;;;;;;;3.35;0.80;;;9.50;99.90;;;;;;4983917;28;20034;-72
2022/10/19 05:50:01;;;;;;;5.35;1.00;;;9.60;99.90;;;;;;5012688;28;20046;-72
2022/10/19 05:52:27;;;;;;;3.13;1.00;;;9.50;99.90;;;;;;5012284;28;20046;-72
2022/10/19 05:54:54;;;;;;;4.72;1.42;;;9.50;99.90;;;;;;5011966;28;20407;-73
2022/10/19 05:57:20;;;;;;;3.60;1.20;;;9.50;99.90;;;;;;5016160;28;20057;-72
2022/10/19 05:59:45;;;;;;;4.57;1.17;;;9.50;99.90;;;;;;5012090;28;20049;-73
2022/10/19 06:02:13;;;;;;;2.50;0.80;;;9.50;99.90;;;;;;5010507;28;20486;-72
2022/10/19 06:04:38;;;;;;;5.50;1.52;;;9.50;99.90;;;;;;5010430;28;20034;-72
2022/10/19 06:07:04;;;;;;;1.95;0.93;;;9.50;99.90;;;;;;4993053;28;20049;-72
2022/10/19 06:09:34;;;;;;;2.67;1.00;;;9.40;99.90;;;;;;4993918;28;20042;-72
2022/10/19 06:12:00;;;;;;;3.83;1.10;;;9.40;99.90;;;;;;5012315;28;20081;-72
2022/10/19 06:14:26;;;;;;;2.90;1.00;;;9.40;99.90;;;;;;4990887;28;20042;-68
2022/10/19 06:16:52;;;;;;;2.22;1.02;;;9.40;99.90;;;;;;5006762;28;20387;-65
2022/10/19 06:19:17;;;;;;;4.03;1.13;;;9.40;99.90;;;;;;5012174;28;20041;-64
2022/10/19 06:21:44;;;;;;;3.85;1.10;;;9.40;99.90;;;;;;5011592;28;20085;-64
2022/10/19 06:24:10;;;;;;;3.03;1.20;;;9.30;99.90;;;;;;4994205;28;20080;-64
2022/10/19 06:26:35;;;;;;;4.05;1.30;;;9.30;99.90;;;;;;5011826;28;20526;-64
2022/10/19 06:29:03;;;;;;;3.45;1.20;;;9.30;99.90;;;;;;5011999;28;20057;-64
2022/10/19 06:31:30;;;;;;;2.55;1.30;;;9.30;99.90;;;;;;5011621;28;20582;-66
2022/10/19 06:33:55;;;;;;;4.32;1.30;;;9.30;99.90;;;;;;5011498;28;20498;-64
2022/10/19 06:36:23;;;;;;;4.97;1.30;;;9.40;99.90;;;;;;5012018;28;20053;-63
2022/10/19 06:38:49;;;;;;;3.15;1.98;;;9.40;99.90;;;;;;5012058;28;20056;-64
2022/10/19 06:41:16;;;;;;;3.58;1.20;;;9.40;99.90;;;;;;5010495;28;20696;-64
2022/10/19 06:43:42;;;;;;;5.05;1.17;;;9.40;99.90;;;;;;5010674;28;20034;-64
2022/10/19 06:46:15;;;;;;;4.10;1.77;;;9.40;99.90;;;;;;5011767;28;20117;-64
2022/10/19 06:48:41;;;;;;;3.38;1.10;;;9.40;99.90;;;;;;5007350;28;20403;-64
2022/10/19 06:51:06;;;;;;;5.78;1.30;;;9.40;99.90;;;;;;4988741;28;20513;-66
2022/10/19 06:53:33;;;;;;;4.88;1.60;;;9.50;99.90;;;;;;5005871;28;20041;-65
2022/10/19 06:56:01;;;;;;;2.78;1.27;;;9.40;99.90;;;;;;4992250;28;20080;-65
2022/10/19 06:58:27;;;;;;;2.30;1.20;;;9.50;99.90;;;;;;5011406;28;20520;-65
2022/10/19 07:00:57;;;;;;;3.13;1.10;;;9.40;99.90;;;;;;5010137;28;20127;-66
2022/10/19 07:03:23;;;;;;;5.75;1.20;;;9.50;99.90;;;;;;5010348;28;20042;-65
2022/10/19 07:05:58;;;;;;;7.57;1.55;;;9.50;99.90;;;;;;5009983;28;20046;-65
2022/10/19 07:08:26;;;;;;;3.15;0.93;;;9.60;99.90;;;;;;5010049;28;20041;-64
2022/10/19 07:10:56;;;;;;;4.38;1.00;;;9.60;99.90;;;;;;5009406;28;20360;-64
2022/10/19 07:13:22;;;;;;;3.83;0.98;;;9.70;99.90;;;;;;4996340;28;20041;-64
2022/10/19 07:15:48;;;;;;;4.45;1.10;;;9.80;99.90;;;;;;5030197;28;20045;-65
2022/10/19 07:18:14;;;;;;;3.40;1.30;;;9.90;99.90;;;;;;5027982;28;20038;-66
2022/10/19 07:20:39;;;;;;;1.83;0.80;;;9.90;99.90;;;;;;5016188;28;20056;-65
2022/10/19 07:23:05;;;;;;;4.57;1.10;;;9.90;99.90;;;;;;5028289;28;20057;-65
2022/10/19 07:25:31;;;;;;;4.05;1.08;;;10.00;99.90;;;;;;5027711;28;20077;-64
2022/10/19 07:27:57;;;;;;;5.53;1.20;;;10.00;99.90;;;;;;5011444;28;20732;-64
2022/10/19 07:30:23;;;;;;;5.70;1.10;;;10.10;99.90;;;;;;5019574;28;20033;-64
2022/10/19 07:32:49;;;;;;;5.50;1.10;;;10.10;99.90;;;;;;5030587;28;20057;-64
2022/10/19 07:35:14;;;;;;;2.88;1.05;;;10.20;99.90;;;;;;5030021;28;20047;-65
2022/10/19 07:37:40;;;;;;;4.28;1.02;;;10.30;99.90;;;;;;5031047;28;20057;-66
2022/10/19 07:40:06;;;;;;;3.78;0.90;;;10.30;99.90;;;;;;5013460;28;20053;-65
2022/10/19 07:42:32;;;;;;;3.70;1.00;;;10.40;99.90;;;;;;5025558;28;20049;-65
2022/10/19 07:44:58;;;;;;;4.55;1.08;;;10.50;99.90;;;;;;4993057;28;20465;-64
2022/10/19 07:47:23;;;;;;;3.55;1.13;;;10.50;99.90;;;;;;5025754;28;20041;-65
2022/10/19 07:49:49;;;;;;;3.50;1.02;;;10.60;99.90;;;;;;5012726;28;20091;-65
2022/10/19 07:52:15;;;;;;;3.63;1.35;;;10.70;99.90;;;;;;5030803;28;20435;-65
2022/10/19 07:54:41;;;;;;;6.38;1.10;;;10.80;99.90;;;;;;5029815;28;20124;-66
2022/10/19 07:57:09;;;;;;;5.00;1.23;;;10.80;99.90;;;;;;5027531;28;20176;-65
2022/10/19 07:59:35;;;;;;;4.95;1.20;;;10.90;99.90;;;;;;5030563;28;20375;-65
2022/10/19 08:02:03;;;;;;;4.32;1.17;;;10.90;99.90;;;;;;5025214;28;20049;-66
2022/10/19 08:04:29;;;;;;;5.03;1.17;;;10.90;99.90;;;;;;5017787;28;20049;-66
2022/10/19 08:06:55;;;;;;;3.28;0.93;;;11.00;99.90;;;;;;5015696;28;20104;-65
2022/10/19 08:09:21;;;;;;;5.68;1.33;;;11.10;99.90;;;;;;5030562;28;20521;-65
2022/10/19 08:11:46;;;;;;;6.55;2.35;;;11.10;99.90;;;;;;5026543;28;20056;-65
2022/10/19 08:14:12;;;;;;;5.13;1.15;;;11.20;99.90;;;;;;5025847;28;20137;-65
2022/10/19 08:16:40;;;;;;;5.65;1.20;;;11.20;99.90;;;;;;5032376;28;20049;-65
2022/10/19 08:19:13;;;;;;;3.60;1.25;;;11.30;99.90;;;;;;5023336;28;20046;-65
2022/10/19 08:21:42;;;;;;;3.45;1.00;;;11.30;99.90;;;;;;5028301;28;20540;-66
2022/10/19 08:24:08;;;;;;;6.43;1.10;;;11.40;99.90;;;;;;5033535;28;20052;-66
2022/10/19 08:26:36;;;;;;;3.22;1.02;;;11.40;99.90;;;;;;5001137;28;20050;-66
2022/10/19 08:29:20;;;;;;;5.55;1.10;;;11.50;99.90;;;;;;5014525;28;20494;-66
2022/10/19 08:31:47;;;;;;;4.45;0.95;;;11.50;99.90;;;;;;5030613;28;20462;-66
2022/10/19 08:34:14;;;;;;;3.60;1.00;;;11.60;99.90;;;;;;5033733;28;20493;-65
2022/10/19 08:36:40;;;;;;;6.32;0.95;;;11.60;99.90;;;;;;5032429;28;20037;-66
2022/10/19 08:39:07;;;;;;;3.80;1.08;;;11.60;99.90;;;;;;5027499;28;20099;-65
2022/10/19 08:41:39;;;;;;;4.18;1.10;;;11.70;99.90;;;;;;5013401;28;20132;-65
2022/10/19 08:44:26;;;;;;;3.35;1.13;;;11.80;99.90;;;;;;5023473;28;20049;-65
2022/10/19 08:47:05;;;;;;;4.40;1.15;;;11.80;99.90;;;;;;5012050;28;20048;-66
2022/10/19 08:49:31;;;;;;;3.95;1.23;;;11.80;99.90;;;;;;5027813;28;20057;-65
2022/10/19 08:52:06;;;;;;;4.38;0.88;;;11.90;99.90;;;;;;5032963;28;20502;-66
2022/10/19 08:54:49;;;;;;;4.97;0.90;;;11.90;99.90;;;;;;5029050;28;20120;-66
2022/10/19 08:57:35;;;;;;;3.15;0.80;;;11.90;99.90;;;;;;5025498;28;20056;-66
2022/10/19 09:00:13;;;;;;;5.03;0.90;;;11.90;99.90;;;;;;5030908;28;20299;-65
2022/10/19 09:02:52;;;;;;;2.80;0.90;;;12.00;99.90;;;;;;5025598;28;20045;-65
2022/10/19 09:05:36;;;;;;;3.55;1.10;;;12.00;99.90;;;;;;5023974;28;20046;-65
2022/10/19 09:08:02;;;;;;;4.40;1.25;;;12.10;99.90;;;;;;5032883;28;20046;-63
2022/10/19 09:10:39;;;;;;;6.07;0.95;;;12.10;99.90;;;;;;5024834;28;20056;-63
2022/10/19 09:13:13;;;;;;;3.35;0.70;;;12.10;99.90;;;;;;5023536;28;20129;-65
2022/10/19 09:15:41;;;;;;;3.58;0.98;;;12.20;99.90;;;;;;5030446;28;20053;-65
2022/10/19 09:18:25;;;;;;;2.95;1.00;;;12.20;99.90;;;;;;5032426;28;20556;-64
2022/10/19 09:21:08;;;;;;;3.58;0.90;;;12.20;99.90;;;;;;5032759;28;20052;-64
2022/10/19 09:23:38;;;;;;;2.90;1.08;;;12.30;99.90;;;;;;5011784;28;20111;-64
2022/10/19 09:26:14;;;;;;;3.42;1.00;;;12.40;99.90;;;;;;5011866;28;20065;-65
2022/10/19 09:28:59;;;;;;;3.17;0.77;;;12.40;99.90;;;;;;5031911;28;20057;-65
2022/10/19 09:31:31;;;;;;;4.13;0.85;;;12.40;99.90;;;;;;4997391;28;20402;-65
2022/10/19 09:34:02;;;;;;;4.38;0.98;;;12.40;99.90;;;;;;5032480;28;20545;-65
2022/10/19 09:36:42;;;;;;;4.90;1.02;;;12.40;99.90;;;;;;5032278;28;20494;-65
2022/10/19 09:39:12;;;;;;;3.33;0.82;;;12.50;99.90;;;;;;5029222;28;20038;-65
2022/10/19 09:41:53;;;;;;;4.75;0.90;;;12.50;99.90;;;;;;5018942;28;20053;-65
2022/10/19 09:44:19;;;;;;;5.47;1.08;;;12.50;99.90;;;;;;5023139;28;20053;-64
2022/10/19 09:47:02;;;;;;;2.70;0.98;;;12.50;99.90;;;;;;5022180;28;20056;-66
2022/10/19 09:49:45;;;;;;;7.50;0.98;;;12.50;99.90;;;;;;5007845;28;20046;-65
2022/10/19 09:52:44;;;;;;;5.45;0.98;;;12.50;99.90;;;;;;5014798;28;20080;-65
2022/10/19 09:55:13;;;;;;;5.65;1.50;;;12.60;99.90;;;;;;4990840;28;20195;-64
2022/10/19 09:57:43;;;;;;;4.82;1.10;;;12.60;99.90;;;;;;5032383;28;20061;-66
2022/10/19 10:00:34;;;;;;;5.45;1.35;;;12.60;99.90;;;;;;5031769;28;20089;-65
2022/10/19 10:02:59;;;;;;;5.53;0.95;;;12.70;99.90;;;;;;4996209;28;20215;-66
2022/10/19 10:05:39;;;;;;;3.95;0.95;;;12.60;99.90;;;;;;5032336;28;20495;-65
2022/10/19 10:08:14;;;;;;;1.90;0.88;;;12.70;99.90;;;;;;5017957;28;20092;-65
2022/10/19 10:11:06;;;;;;;4.53;1.00;;;12.60;99.90;;;;;;4996002;28;20096;-66
2022/10/19 10:13:38;;;;;;;3.38;1.10;;;12.70;99.90;;;;;;5003529;28;20076;-65
2022/10/19 10:16:08;;;;;;;2.55;1.10;;;12.70;99.90;;;;;;5002195;28;20056;-66
2022/10/19 10:18:50;;;;;;;2.95;0.90;;;12.70;99.90;;;;;;5006954;28;20049;-66
2022/10/19 10:21:20;;;;;;;4.07;1.05;;;12.70;99.90;;;;;;5031482;28;20178;-66
2022/10/19 10:24:04;;;;;;;5.32;1.20;;;12.70;99.90;;;;;;5030694;28;20115;-66
2022/10/19 10:26:30;;;;;;;4.43;1.10;;;12.70;99.90;;;;;;5031778;28;20062;-65
2022/10/19 10:28:56;;;;;;;2.88;0.93;;;12.60;99.90;;;;;;5016678;28;20506;-66
2022/10/19 10:31:28;;;;;;;4.55;0.93;;;12.60;99.90;;;;;;5023301;28;20041;-65
2022/10/19 10:34:00;;;;;;;5.15;0.90;;;12.70;99.90;;;;;;5020408;28;20128;-65
2022/10/19 10:36:28;;;;;;;3.35;1.10;;;12.60;99.90;;;;;;5028665;28;20041;-65
2022/10/19 10:39:15;;;;;;;6.65;1.13;;;12.70;99.90;;;;;;5028395;28;20053;-64
2022/10/19 10:41:43;;;;;;;2.50;1.00;;;12.60;99.90;;;;;;5030910;28;20151;-64
2022/10/19 10:44:20;;;;;;;3.22;0.90;;;12.60;99.90;;;;;;5012917;28;20061;-65
2022/10/19 10:46:58;;;;;;;4.30;0.95;;;12.70;99.90;;;;;;5028559;28;20045;-64
2022/10/19 10:49:33;;;;;;;2.67;1.00;;;12.70;99.90;;;;;;5008434;28;20553;-65
2022/10/19 10:52:14;;;;;;;2.03;0.80;;;12.70;99.90;;;;;;5030572;28;20054;-65
2022/10/19 10:54:55;;;;;;;4.35;0.90;;;12.70;99.90;;;;;;5012601;28;20034;-65
2022/10/19 10:57:24;;;;;;;4.53;1.00;;;12.70;99.90;;;;;;5008895;28;20088;-63
2022/10/19 11:00:25;;;;;;;3.30;1.00;;;12.80;99.90;;;;;;5031225;28;20103;-63
2022/10/19 11:03:15;;;;;;;3.90;0.95;;;12.80;99.90;;;;;;4969601;28;20468;-63
2022/10/19 11:05:45;;;;;;;3.65;0.90;;;12.90;99.90;;;;;;5028109;28;20068;-63
2022/10/19 11:08:11;;;;;;;2.75;0.70;;;12.90;99.90;;;;;;5025682;28;20042;-63
2022/10/19 11:10:52;;;;;;;2.05;0.70;;;13.00;99.90;;;;;;5020885;28;20501;-64
2022/10/19 11:13:47;;;;;;;2.70;0.80;;;13.10;99.90;;;;;;5021126;28;20049;-64
2022/10/19 11:16:17;;;;;;;3.47;0.90;;;13.10;99.90;;;;;;5030422;28;20050;-64
2022/10/19 11:18:53;;;;;;;3.80;1.27;;;13.10;99.90;;;;;;4990662;28;20137;-65
2022/10/19 11:21:30;;;;;;;2.67;0.90;;;13.10;99.90;;;;;;5023391;28;20045;-65
2022/10/19 11:24:33;;;;;;;1.50;0.65;;;13.10;99.90;;;;;;5027150;28;20115;-65
2022/10/19 11:26:59;;;;;;;2.92;0.77;;;13.10;99.90;;;;;;5029956;28;20123;-66
2022/10/19 11:29:55;;;;;;;3.97;1.13;;;13.10;99.90;;;;;;5030910;28;20094;-65
2022/10/19 11:32:44;;;;;;;3.75;0.65;;;13.20;99.90;;;;;;5021540;28;20041;-65
2022/10/19 11:35:24;;;;;;;3.53;0.70;;;13.20;99.90;;;;;;5019274;28;20037;-66
2022/10/19 11:38:15;;;;;;;2.67;0.88;;;13.20;99.90;;;;;;5027846;28;20092;-66
2022/10/19 11:41:19;;;;;;;3.42;0.82;;;13.20;99.90;;;;;;5014729;28;20084;-66
2022/10/19 11:44:19;;;;;;;3.63;1.00;;;13.10;99.90;;;;;;5028090;28;20053;-65
2022/10/19 11:46:56;;;;;;;1.98;0.82;;;13.00;99.90;;;;;;5017090;28;20053;-66
2022/10/19 11:49:52;;;;;;;3.83;0.93;;;13.00;99.90;;;;;;5030087;28;20569;-79
2022/10/19 11:52:38;;;;;;;3.15;1.10;;;13.00;99.90;;;;;;5028836;28;20612;-76
2022/10/19 11:55:32;;;;;;;3.13;0.73;;;13.00;99.90;;;;;;5003444;28;20073;-76
2022/10/19 11:58:22;;;;;;;3.15;1.00;;;13.00;99.90;;;;;;5004324;28;20077;-77
2022/10/19 12:00:55;;;;;;;3.42;0.80;;;13.10;99.90;;;;;;5027715;28;20071;-75
2022/10/19 12:03:23;;;;;;;2.28;0.70;;;13.10;99.90;;;;;;5017657;28;20143;-75
2022/10/19 12:06:14;;;;;;;3.53;0.90;;;13.10;99.90;;;;;;5020484;28;20532;-75
2022/10/19 12:09:05;;;;;;;3.28;0.90;;;13.10;99.90;;;;;;5033617;28;20049;-74
2022/10/19 12:11:49;;;;;;;4.97;0.80;;;13.10;99.90;;;;;;5021879;28;20095;-75
2022/10/19 12:14:21;;;;;;;3.92;1.00;;;13.20;99.90;;;;;;5026851;28;20042;-76
2022/10/19 12:16:51;;;;;;;2.95;1.13;;;13.20;99.90;;;;;;5029967;28;20103;-77
2022/10/19 12:19:24;;;;;;;4.72;1.08;;;13.20;99.90;;;;;;5033198;28;20089;-78
2022/10/19 12:21:53;;;;;;;2.28;1.13;;;13.30;99.90;;;;;;5033102;28;20503;-79
2022/10/19 12:24:23;;;;;;;3.08;1.23;;;13.30;99.90;;;;;;5033388;28;22143;-78
2022/10/19 12:26:50;;;;;;;2.95;1.30;;;13.30;99.90;;;;;;5033436;28;20084;-71
2022/10/19 12:29:21;;;;;;;3.45;1.50;;;13.30;99.90;;;;;;5033883;28;20055;-71
2022/10/19 12:31:47;;;;;;;2.97;1.52;;;13.20;99.90;;;;;;5033830;28;20056;-71
2022/10/19 12:34:25;;;;;;;3.38;1.70;;;13.30;99.90;;;;;;5034070;28;20440;-71
2022/10/19 12:37:20;;;;;;;2.95;1.67;;;13.40;99.90;;;;;;5032666;28;20528;-79
2022/10/19 12:40:15;;;;;;;4.13;1.65;;;13.40;99.90;;;;;;5027288;28;20144;-72
2022/10/19 12:42:50;;;;;;;4.22;1.58;;;13.50;99.90;;;;;;5033657;28;20057;-71
2022/10/19 12:45:42;;;;;;;3.42;1.60;;;13.50;99.90;;;;;;5016352;28;20041;-71
2022/10/19 12:48:07;;;;;;;4.40;1.73;;;13.50;99.90;;;;;;4990192;28;20068;-72
2022/10/19 12:50:53;;;;;;;5.82;1.95;;;13.40;99.90;;;;;;4996019;28;20046;-71
2022/10/19 12:53:26;;;;;;;6.10;1.92;;;13.30;99.90;;;;;;5013395;28;20062;-71
2022/10/19 12:56:20;;;;;;;5.38;2.95;;;13.20;99.90;;;;;;5012649;28;20442;-71
2022/10/19 12:58:58;;;;;;;5.47;2.05;;;13.10;99.90;;;;;;5012434;28;20147;-72
2022/10/19 13:01:51;;;;;;;5.05;2.15;;;13.20;99.90;;;;;;5010583;28;20046;-71
2022/10/19 13:04:21;;;;;;;4.38;2.13;;;13.20;99.90;;;;;;5011442;28;20388;-71
2022/10/19 13:06:50;;;;;;;5.68;2.15;;;13.20;99.90;;;;;;5013534;28;20096;-71
2022/10/19 13:09:37;;;;;;;5.38;2.40;;;13.20;99.90;;;;;;5013654;28;20487;-72
2022/10/19 13:12:14;;;;;;;5.50;2.40;;;13.20;99.90;;;;;;5013354;28;20506;-72